Time;durP1;ratioP1;P1;durP2;ratioP2;P2;SDS_P1;SDS_P2;PMS_P1;PMS_P2;Temp;Humidity;BMP_temperature;BMP_pressure;BME280_temperature;BME280_humidity;BME280_pressure;Samples;Min_cycle;Max_cycle;Signal;HPM_P1;HPM_P2
2022/07/03 00:01:48;;;;;;;;;1.00;1.00;;;;;;;;4933760;28;8833;-77
2022/07/03 00:04:18;;;;;;;;;0.50;0.50;;;;;;;;4941558;28;8928;-77
2022/07/03 00:06:45;;;;;;;;;0.25;0.25;;;;;;;;4944107;28;8901;-77
2022/07/03 00:09:13;;;;;;;;;0.25;0.25;;;;;;;;4940085;28;8870;-77
2022/07/03 00:11:41;;;;;;;;;0.75;0.75;;;;;;;;4944554;28;9770;-78
2022/07/03 00:14:10;;;;;;;;;1.00;1.00;;;;;;;;4939563;28;8866;-77
2022/07/03 00:16:37;;;;;;;;;0.50;0.50;;;;;;;;4928317;28;8886;-78
2022/07/03 00:19:04;;;;;;;;;0.25;0.25;;;;;;;;4942692;28;8872;-79
2022/07/03 00:21:36;;;;;;;;;0.00;0.00;;;;;;;;4937060;28;9652;-77
2022/07/03 00:24:05;;;;;;;;;0.50;0.50;;;;;;;;4923963;28;8976;-77
2022/07/03 00:26:35;;;;;;;;;0.00;0.00;;;;;;;;4936241;28;8892;-76
2022/07/03 00:29:04;;;;;;;;;0.00;0.00;;;;;;;;4937417;28;8901;-75
2022/07/03 00:31:34;;;;;;;;;0.75;0.75;;;;;;;;4943917;28;8890;-80
2022/07/03 00:34:03;;;;;;;;;0.00;0.00;;;;;;;;4939509;29;8863;-76
2022/07/03 00:36:34;;;;;;;;;0.33;0.33;;;;;;;;4937630;28;8857;-77
2022/07/03 00:39:02;;;;;;;;;1.00;1.00;;;;;;;;4935822;28;9791;-77
2022/07/03 00:41:31;;;;;;;;;0.00;0.00;;;;;;;;4945662;28;9053;-82
2022/07/03 00:43:58;;;;;;;;;0.00;0.00;;;;;;;;4942788;28;8939;-80
2022/07/03 00:46:28;;;;;;;;;0.00;0.00;;;;;;;;4943790;28;8889;-76
2022/07/03 00:48:58;;;;;;;;;1.00;1.00;;;;;;;;4927629;28;9088;-73
2022/07/03 00:51:27;;;;;;;;;0.33;0.33;;;;;;;;4943107;28;9223;-76
2022/07/03 00:53:56;;;;;;;;;1.50;1.50;;;;;;;;4944231;28;9225;-77
2022/07/03 00:56:27;;;;;;;;;0.50;0.50;;;;;;;;4941539;28;9613;-75
2022/07/03 00:58:57;;;;;;;;;0.00;0.00;;;;;;;;4946297;28;9575;-75
2022/07/03 01:01:26;;;;;;;;;0.67;0.67;;;;;;;;4941326;28;9171;-75
2022/07/03 01:04:07;;;;;;;;;1.00;1.00;;;;;;;;4944210;28;9277;-75
2022/07/03 01:06:40;;;;;;;;;1.00;1.00;;;;;;;;4944012;28;9353;-77
2022/07/03 01:09:08;;;;;;;;;0.00;0.00;;;;;;;;4942675;28;9473;-75
2022/07/03 01:11:40;;;;;;;;;1.00;1.00;;;;;;;;4943987;28;9438;-75
2022/07/03 01:14:17;;;;;;;;;0.00;0.00;;;;;;;;4922158;28;9426;-75
2022/07/03 01:16:56;;;;;;;;;1.00;1.00;;;;;;;;4943965;28;9432;-75
2022/07/03 01:19:41;;;;;;;;;1.00;1.00;;;;;;;;4940353;28;9520;-75
2022/07/03 01:22:30;;;;;;;;;1.00;1.00;;;;;;;;4942744;28;9453;-76
2022/07/03 01:25:17;;;;;;;;;0.67;0.67;;;;;;;;4929796;28;9442;-75
2022/07/03 01:28:11;;;;;;;;;0.33;0.33;;;;;;;;4927880;28;9471;-76
2022/07/03 01:30:40;;;;;;;;;1.67;1.00;;;;;;;;4942870;28;9308;-75
2022/07/03 01:33:09;;;;;;;;;1.00;1.00;;;;;;;;4945679;28;9271;-76
2022/07/03 01:35:39;;;;;;;;;1.00;1.00;;;;;;;;4941484;28;9357;-76
2022/07/03 01:38:09;;;;;;;;;1.33;1.33;;;;;;;;4942903;28;9371;-78
2022/07/03 01:40:38;;;;;;;;;0.00;0.00;;;;;;;;4943019;28;9379;-76
2022/07/03 01:43:09;;;;;;;;;0.00;0.00;;;;;;;;4942595;28;9210;-75
2022/07/03 01:45:40;;;;;;;;;0.00;0.00;;;;;;;;4940456;28;9161;-75
2022/07/03 01:48:09;;;;;;;;;2.67;1.00;;;;;;;;4941176;28;9298;-78
2022/07/03 01:50:38;;;;;;;;;0.00;0.00;;;;;;;;4941555;28;9408;-75
2022/07/03 01:53:09;;;;;;;;;0.67;0.67;;;;;;;;4940819;28;9186;-77
2022/07/03 01:55:39;;;;;;;;;2.00;0.00;;;;;;;;4942758;28;9211;-75
2022/07/03 01:58:09;;;;;;;;;0.00;0.00;;;;;;;;4941954;28;9238;-75
2022/07/03 02:00:43;;;;;;;;;1.00;1.00;;;;;;;;4938974;28;9301;-76
2022/07/03 02:03:10;;;;;;;;;0.67;0.67;;;;;;;;4944273;28;9280;-76
2022/07/03 02:05:44;;;;;;;;;3.00;1.00;;;;;;;;4939250;28;9210;-76
2022/07/03 02:08:35;;;;;;;;;2.00;1.00;;;;;;;;4940616;28;9469;-78
2022/07/03 02:11:10;;;;;;;;;1.33;1.00;;;;;;;;4942199;28;9292;-75
2022/07/03 02:13:49;;;;;;;;;1.00;1.00;;;;;;;;4944703;28;9394;-75
2022/07/03 02:16:22;;;;;;;;;1.00;1.00;;;;;;;;4923934;28;9331;-75
2022/07/03 02:18:58;;;;;;;;;0.00;0.00;;;;;;;;4944200;28;9382;-77
2022/07/03 02:21:29;;;;;;;;;2.00;0.00;;;;;;;;4943595;28;9388;-76
2022/07/03 02:24:05;;;;;;;;;1.00;1.00;;;;;;;;4943121;28;9272;-75
2022/07/03 02:26:35;;;;;;;;;1.00;1.00;;;;;;;;4924570;28;10131;-75
2022/07/03 02:29:07;;;;;;;;;1.00;1.00;;;;;;;;4940642;28;10154;-75
2022/07/03 02:31:40;;;;;;;;;1.33;1.00;;;;;;;;4925010;28;10069;-76
2022/07/03 02:34:15;;;;;;;;;1.75;1.75;;;;;;;;4924274;29;9359;-82
2022/07/03 02:36:47;;;;;;;;;1.00;1.00;;;;;;;;4941062;29;9859;-76
2022/07/03 02:39:21;;;;;;;;;1.00;1.00;;;;;;;;4944420;29;9522;-78
2022/07/03 02:41:54;;;;;;;;;1.00;1.00;;;;;;;;4940901;29;10370;-79
2022/07/03 02:44:28;;;;;;;;;1.00;1.00;;;;;;;;4942228;29;9522;-76
2022/07/03 02:47:04;;;;;;;;;2.33;2.33;;;;;;;;4943716;29;9435;-78
2022/07/03 02:49:54;;;;;;;;;2.00;2.00;;;;;;;;4937171;29;9524;-76
2022/07/03 02:52:34;;;;;;;;;2.00;2.00;;;;;;;;4941766;29;9356;-76
2022/07/03 02:55:05;;;;;;;;;2.67;2.00;;;;;;;;4941925;29;9340;-76
2022/07/03 02:57:40;;;;;;;;;1.00;1.00;;;;;;;;4941979;29;9443;-77
2022/07/03 03:00:10;;;;;;;;;3.00;3.00;;;;;;;;4939826;28;9290;-78
2022/07/03 03:02:55;;;;;;;;;2.00;2.00;;;;;;;;4940385;29;9433;-76
2022/07/03 03:05:28;;;;;;;;;1.00;1.00;;;;;;;;4941456;29;9194;-82
2022/07/03 03:08:07;;;;;;;;;2.00;2.00;;;;;;;;4941757;29;10176;-76
2022/07/03 03:10:36;;;;;;;;;2.00;2.00;;;;;;;;4922730;29;9376;-78
2022/07/03 03:13:05;;;;;;;;;3.00;3.00;;;;;;;;4942986;29;9445;-77
2022/07/03 03:15:35;;;;;;;;;5.00;3.50;;;;;;;;4941570;28;9283;-79
2022/07/03 03:18:04;;;;;;;;;1.00;1.00;;;;;;;;4942981;29;9408;-77
2022/07/03 03:20:33;;;;;;;;;2.33;2.33;;;;;;;;4936209;29;9225;-75
2022/07/03 03:23:11;;;;;;;;;2.00;2.00;;;;;;;;4942276;29;10086;-77
2022/07/03 03:25:39;;;;;;;;;2.33;2.33;;;;;;;;4941569;29;9426;-76
2022/07/03 03:28:06;;;;;;;;;2.00;2.00;;;;;;;;4940921;29;9362;-79
2022/07/03 03:30:36;;;;;;;;;2.00;2.00;;;;;;;;4942963;28;9398;-79
2022/07/03 03:33:06;;;;;;;;;1.67;1.00;;;;;;;;4941530;29;9459;-76
2022/07/03 03:35:34;;;;;;;;;2.00;2.00;;;;;;;;4941326;29;9201;-76
2022/07/03 03:38:02;;;;;;;;;3.00;3.00;;;;;;;;4938375;29;9291;-78
2022/07/03 03:40:29;;;;;;;;;2.00;2.00;;;;;;;;4927147;28;9385;-76
2022/07/03 03:42:56;;;;;;;;;2.00;2.00;;;;;;;;4947099;28;9387;-76
2022/07/03 03:45:23;;;;;;;;;2.67;2.67;;;;;;;;4944734;28;9298;-80
2022/07/03 03:47:53;;;;;;;;;5.00;5.00;;;;;;;;4951305;28;9397;-81
2022/07/03 03:50:20;;;;;;;;;2.33;2.33;;;;;;;;4949024;28;9700;-82
2022/07/03 03:52:48;;;;;;;;;3.75;3.75;;;;;;;;4944890;28;9452;-82
2022/07/03 03:55:16;;;;;;;;;3.00;3.00;;;;;;;;4945633;28;9540;-78
2022/07/03 03:57:43;;;;;;;;;2.75;2.75;;;;;;;;4947669;28;9577;-81
2022/07/03 04:00:11;;;;;;;;;2.25;2.25;;;;;;;;4947432;28;9507;-80
2022/07/03 04:02:38;;;;;;;;;2.50;2.50;;;;;;;;4945841;28;9602;-80
2022/07/03 04:05:09;;;;;;;;;0.33;0.33;;;;;;;;4946092;28;9561;-78
2022/07/03 04:07:36;;;;;;;;;1.50;1.50;;;;;;;;4944505;28;9368;-76
2022/07/03 04:10:03;;;;;;;;;4.00;4.00;;;;;;;;4947283;28;9543;-76
2022/07/03 04:12:31;;;;;;;;;3.00;3.00;;;;;;;;4944320;28;9530;-77
2022/07/03 04:14:59;;;;;;;;;2.75;2.75;;;;;;;;4948953;28;9507;-76
2022/07/03 04:17:27;;;;;;;;;2.75;2.75;;;;;;;;4946084;28;9491;-77
2022/07/03 04:19:54;;;;;;;;;5.00;3.75;;;;;;;;4945679;28;9457;-76
2022/07/03 04:22:23;;;;;;;;;2.00;2.00;;;;;;;;4946219;28;9496;-77
2022/07/03 04:24:50;;;;;;;;;2.25;2.25;;;;;;;;4944570;28;9522;-76
2022/07/03 04:27:17;;;;;;;;;2.50;2.50;;;;;;;;4946419;28;9606;-76
2022/07/03 04:29:45;;;;;;;;;1.67;1.67;;;;;;;;4945202;28;10305;-78
2022/07/03 04:32:12;;;;;;;;;2.67;2.67;;;;;;;;4945621;28;9458;-77
2022/07/03 04:34:39;;;;;;;;;2.67;2.67;;;;;;;;4944521;28;9389;-79
2022/07/03 04:37:07;;;;;;;;;2.00;2.00;;;;;;;;4945122;28;9336;-79
2022/07/03 04:39:36;;;;;;;;;3.00;3.00;;;;;;;;4946353;28;9398;-79
2022/07/03 04:42:03;;;;;;;;;2.00;2.00;;;;;;;;4943867;28;9325;-76
2022/07/03 04:44:30;;;;;;;;;1.33;1.33;;;;;;;;4945019;28;9362;-77
2022/07/03 04:46:58;;;;;;;;;2.00;2.00;;;;;;;;4940538;28;9411;-76
2022/07/03 04:49:25;;;;;;;;;2.00;2.00;;;;;;;;4944392;28;9310;-79
2022/07/03 04:51:53;;;;;;;;;3.00;3.00;;;;;;;;4934337;28;9302;-77
2022/07/03 04:54:20;;;;;;;;;3.00;2.00;;;;;;;;4943344;28;9366;-77
2022/07/03 04:56:49;;;;;;;;;2.67;2.67;;;;;;;;4943084;28;9104;-78
2022/07/03 04:59:16;;;;;;;;;4.00;4.00;;;;;;;;4939336;28;9134;-78
2022/07/03 05:01:44;;;;;;;;;2.00;2.00;;;;;;;;4943278;28;9168;-80
2022/07/03 05:04:11;;;;;;;;;2.00;2.00;;;;;;;;4923232;28;9182;-78
2022/07/03 05:06:39;;;;;;;;;2.67;2.67;;;;;;;;4927356;28;9059;-80
2022/07/03 05:09:06;;;;;;;;;2.00;2.00;;;;;;;;4931634;28;9008;-77
2022/07/03 05:11:34;;;;;;;;;4.67;3.00;;;;;;;;4942708;28;9051;-76
2022/07/03 05:14:02;;;;;;;;;2.00;2.00;;;;;;;;4942712;28;9353;-76
2022/07/03 05:16:30;;;;;;;;;3.00;3.00;;;;;;;;4943569;28;9229;-77
2022/07/03 05:18:57;;;;;;;;;2.00;2.00;;;;;;;;4943646;28;9275;-80
2022/07/03 05:21:25;;;;;;;;;1.00;1.00;;;;;;;;4940427;28;9276;-76
2022/07/03 05:23:52;;;;;;;;;2.67;1.67;;;;;;;;4945022;28;9212;-75
2022/07/03 05:26:19;;;;;;;;;2.67;2.67;;;;;;;;4923361;28;9120;-76
2022/07/03 05:28:47;;;;;;;;;3.00;3.00;;;;;;;;4944056;28;9314;-76
2022/07/03 05:31:16;;;;;;;;;2.00;2.00;;;;;;;;4944068;28;9153;-77
2022/07/03 05:33:43;;;;;;;;;2.00;2.00;;;;;;;;4944147;28;9234;-76
2022/07/03 05:36:10;;;;;;;;;4.00;2.00;;;;;;;;4942713;28;10143;-76
2022/07/03 05:41:22;;;;;;;;;3.67;3.67;;;;;;;;4927854;28;9347;-77
2022/07/03 05:43:49;;;;;;;;;2.00;2.00;;;;;;;;4941781;28;9377;-80
2022/07/03 05:46:18;;;;;;;;;5.00;3.67;;;;;;;;4934934;29;9379;-75
2022/07/03 05:48:45;;;;;;;;;2.33;2.33;;;;;;;;4934332;28;9440;-78
2022/07/03 05:51:13;;;;;;;;;2.33;2.33;;;;;;;;4910322;28;9296;-79
2022/07/03 05:53:40;;;;;;;;;3.33;3.33;;;;;;;;4943187;28;9197;-79
2022/07/03 05:56:08;;;;;;;;;5.67;2.00;;;;;;;;4924161;28;9292;-86
2022/07/03 05:58:35;;;;;;;;;2.00;2.00;;;;;;;;4944171;28;10014;-77
2022/07/03 06:01:02;;;;;;;;;1.00;1.00;;;;;;;;4928135;28;9100;-76
2022/07/03 06:03:31;;;;;;;;;3.00;3.00;;;;;;;;4944193;28;9109;-78
2022/07/03 06:06:00;;;;;;;;;1.67;1.00;;;;;;;;4927437;28;9280;-78
2022/07/03 06:08:28;;;;;;;;;2.67;2.67;;;;;;;;4914255;28;9141;-76
2022/07/03 06:10:55;;;;;;;;;3.00;3.00;;;;;;;;4935689;28;9346;-74
2022/07/03 06:13:23;;;;;;;;;3.00;3.00;;;;;;;;4940913;28;9232;-77
2022/07/03 06:15:50;;;;;;;;;1.67;1.67;;;;;;;;4939606;28;9109;-75
2022/07/03 06:18:17;;;;;;;;;2.00;2.00;;;;;;;;4936252;28;9126;-75
2022/07/03 06:20:46;;;;;;;;;5.00;3.33;;;;;;;;4942599;28;9000;-74
2022/07/03 06:23:13;;;;;;;;;3.25;3.25;;;;;;;;4941920;28;9051;-73
2022/07/03 06:25:40;;;;;;;;;2.25;2.25;;;;;;;;4934996;28;8894;-73
2022/07/03 06:28:08;;;;;;;;;2.25;2.00;;;;;;;;4942288;28;8888;-72
2022/07/03 06:30:35;;;;;;;;;3.25;3.00;;;;;;;;4924098;28;9568;-76
2022/07/03 06:33:02;;;;;;;;;3.00;3.00;;;;;;;;4923935;29;8878;-72
2022/07/03 06:35:30;;;;;;;;;2.50;2.50;;;;;;;;4940193;29;8891;-74
2022/07/03 06:38:02;;;;;;;;;2.25;2.25;;;;;;;;4940204;29;8878;-74
2022/07/03 06:40:29;;;;;;;;;2.50;2.50;;;;;;;;4939972;29;9662;-74
2022/07/03 06:42:57;;;;;;;;;1.00;1.00;;;;;;;;4941861;29;8885;-73
2022/07/03 06:45:24;;;;;;;;;2.00;2.00;;;;;;;;4940344;29;8887;-74
2022/07/03 06:47:51;;;;;;;;;1.00;1.00;;;;;;;;4937833;29;8862;-74
2022/07/03 06:50:19;;;;;;;;;1.75;1.75;;;;;;;;4942343;29;8883;-76
2022/07/03 06:52:46;;;;;;;;;3.00;3.00;;;;;;;;4938474;29;8881;-73
2022/07/03 06:55:15;;;;;;;;;1.00;1.00;;;;;;;;4924511;29;8890;-75
2022/07/03 06:57:43;;;;;;;;;3.50;2.25;;;;;;;;4924836;29;8881;-77
2022/07/03 07:00:11;;;;;;;;;1.50;1.50;;;;;;;;4942617;28;8881;-77
2022/07/03 07:02:39;;;;;;;;;2.00;2.00;;;;;;;;4939562;29;8869;-75
2022/07/03 07:05:07;;;;;;;;;1.00;1.00;;;;;;;;4938337;29;8905;-76
2022/07/03 07:07:35;;;;;;;;;1.25;1.25;;;;;;;;4940885;29;9008;-77
2022/07/03 07:10:02;;;;;;;;;4.00;2.25;;;;;;;;4940061;29;8881;-78
2022/07/03 07:12:31;;;;;;;;;1.75;1.00;;;;;;;;4940513;29;8889;-75
2022/07/03 07:14:58;;;;;;;;;3.00;2.00;;;;;;;;4940103;28;9386;-78
2022/07/03 07:17:25;;;;;;;;;2.00;2.00;;;;;;;;4941016;28;8899;-75
2022/07/03 07:19:52;;;;;;;;;2.25;1.50;;;;;;;;4940106;28;8873;-77
2022/07/03 07:22:19;;;;;;;;;1.75;1.00;;;;;;;;4941140;28;10045;-76
2022/07/03 07:24:47;;;;;;;;;1.00;1.00;;;;;;;;4941985;28;8873;-78
2022/07/03 07:27:14;;;;;;;;;3.00;2.00;;;;;;;;4942371;28;8859;-78
2022/07/03 07:29:43;;;;;;;;;1.00;1.00;;;;;;;;4942769;28;8928;-76
2022/07/03 07:32:10;;;;;;;;;2.00;2.00;;;;;;;;4938568;28;9616;-77
2022/07/03 07:34:37;;;;;;;;;2.00;2.00;;;;;;;;4942296;28;8873;-74
2022/07/03 07:37:05;;;;;;;;;2.00;2.00;;;;;;;;4942094;28;8846;-74
2022/07/03 07:39:32;;;;;;;;;2.00;2.00;;;;;;;;4941760;28;9830;-77
2022/07/03 07:41:59;;;;;;;;;2.25;2.25;;;;;;;;4943798;28;8875;-75
2022/07/03 07:44:27;;;;;;;;;3.00;3.00;;;;;;;;4942415;28;8917;-76
2022/07/03 07:46:56;;;;;;;;;2.00;2.00;;;;;;;;4944538;28;8845;-75
2022/07/03 07:49:23;;;;;;;;;2.00;2.00;;;;;;;;4942715;28;8885;-76
2022/07/03 07:51:50;;;;;;;;;4.25;3.00;;;;;;;;4943630;28;8889;-75
2022/07/03 07:54:17;;;;;;;;;3.75;3.75;;;;;;;;4941171;28;8903;-75
2022/07/03 07:56:45;;;;;;;;;4.00;2.25;;;;;;;;4938737;28;9007;-76
2022/07/03 07:59:12;;;;;;;;;2.00;2.00;;;;;;;;4944763;28;8895;-76
2022/07/03 08:07:10;;;;;;;;;1.75;1.50;;;;;;;;4941415;28;8833;-76
2022/07/03 08:09:37;;;;;;;;;3.00;3.00;;;;;;;;4944770;28;8893;-77
2022/07/03 08:12:05;;;;;;;;;4.50;2.00;;;;;;;;4942746;28;8874;-75
2022/07/03 08:14:32;;;;;;;;;1.50;1.50;;;;;;;;4939716;28;8900;-75
2022/07/03 08:17:00;;;;;;;;;2.00;2.00;;;;;;;;4942817;28;8929;-75
2022/07/03 08:19:29;;;;;;;;;2.00;2.00;;;;;;;;4942411;28;9012;-75
2022/07/03 08:21:56;;;;;;;;;2.75;2.75;;;;;;;;4938689;28;8897;-76
2022/07/03 08:24:23;;;;;;;;;2.00;2.00;;;;;;;;4941834;28;8920;-79
2022/07/03 08:26:50;;;;;;;;;2.25;2.25;;;;;;;;4921882;29;8901;-76
2022/07/03 08:29:18;;;;;;;;;2.00;2.00;;;;;;;;4931882;28;8927;-76
2022/07/03 08:31:45;;;;;;;;;2.50;2.50;;;;;;;;4931999;28;8846;-77
2022/07/03 08:34:13;;;;;;;;;3.00;2.00;;;;;;;;4935749;28;8900;-76
2022/07/03 08:36:43;;;;;;;;;1.75;1.75;;;;;;;;4931061;28;9664;-76
2022/07/03 08:39:10;;;;;;;;;2.25;1.75;;;;;;;;4940305;29;8898;-76
2022/07/03 08:41:39;;;;;;;;;3.00;3.00;;;;;;;;4938862;28;8884;-77
2022/07/03 08:44:07;;;;;;;;;2.00;2.00;;;;;;;;4914428;29;8890;-82
2022/07/03 08:46:35;;;;;;;;;1.00;1.00;;;;;;;;4931378;28;8884;-82
2022/07/03 08:49:03;;;;;;;;;1.40;1.40;;;;;;;;4923925;28;8905;-80
2022/07/03 08:51:31;;;;;;;;;2.00;2.00;;;;;;;;4942388;28;8861;-80
2022/07/03 08:54:02;;;;;;;;;2.00;2.00;;;;;;;;4933974;28;9010;-82
2022/07/03 08:56:29;;;;;;;;;1.60;1.60;;;;;;;;4941652;28;8891;-82
2022/07/03 08:58:59;;;;;;;;;1.00;1.00;;;;;;;;4926767;29;8889;-80
2022/07/03 09:01:31;;;;;;;;;2.20;2.20;;;;;;;;4931095;28;9677;-80
2022/07/03 09:04:00;;;;;;;;;3.00;3.00;;;;;;;;4921419;28;8970;-83
2022/07/03 09:06:33;;;;;;;;;4.00;2.00;;;;;;;;4939295;28;8897;-82
2022/07/03 09:09:05;;;;;;;;;3.00;1.80;;;;;;;;4942836;28;8891;-81
2022/07/03 09:11:34;;;;;;;;;2.40;2.00;;;;;;;;4926967;28;8888;-80
2022/07/03 09:14:02;;;;;;;;;1.00;1.00;;;;;;;;4922988;28;8948;-83
2022/07/03 09:16:29;;;;;;;;;2.00;2.00;;;;;;;;4934164;28;8856;-81
2022/07/03 09:18:57;;;;;;;;;2.00;2.00;;;;;;;;4943332;28;10024;-82
2022/07/03 09:21:24;;;;;;;;;4.20;4.20;;;;;;;;4942349;28;8856;-82
2022/07/03 09:23:51;;;;;;;;;2.00;1.60;;;;;;;;4942950;28;8870;-80
2022/07/03 09:26:27;;;;;;;;;2.40;2.40;;;;;;;;4936336;28;8914;-88
2022/07/03 09:28:55;;;;;;;;;2.00;2.00;;;;;;;;4931870;28;8874;-85
2022/07/03 09:31:24;;;;;;;;;1.60;1.60;;;;;;;;4942410;28;8826;-84
2022/07/03 09:34:02;;;;;;;;;1.00;1.00;;;;;;;;4937239;28;10410;-86
2022/07/03 09:36:41;;;;;;;;;1.60;1.60;;;;;;;;4943366;28;8972;-85
2022/07/03 09:39:17;;;;;;;;;1.00;0.00;;;;;;;;4937366;28;8877;-84
2022/07/03 09:41:58;;;;;;;;;1.00;1.00;;;;;;;;4940801;28;8891;-84
2022/07/03 09:44:34;;;;;;;;;2.00;1.00;;;;;;;;4940508;28;8849;-84
2022/07/03 09:47:14;;;;;;;;;3.20;1.80;;;;;;;;4941218;28;8909;-87
2022/07/03 09:49:50;;;;;;;;;2.00;1.00;;;;;;;;4939229;28;8889;-83
2022/07/03 09:52:42;;;;;;;;;1.80;1.80;;;;;;;;4936634;28;8893;-83
2022/07/03 09:55:15;;;;;;;;;1.00;1.00;;;;;;;;4912880;28;8911;-83
2022/07/03 09:57:46;;;;;;;;;1.40;1.40;;;;;;;;4940408;28;8869;-79
2022/07/03 10:00:17;;;;;;;;;2.20;2.00;;;;;;;;4938778;28;8965;-78
2022/07/03 10:02:56;;;;;;;;;1.00;1.00;;;;;;;;4942609;28;9762;-78
2022/07/03 10:05:24;;;;;;;;;2.00;2.00;;;;;;;;4938092;28;8897;-78
2022/07/03 10:07:53;;;;;;;;;0.80;0.80;;;;;;;;4943716;28;8893;-80
2022/07/03 10:10:22;;;;;;;;;24.25;24.25;;;;;;;;4921015;29;8883;-76
2022/07/03 10:12:52;;;;;;;;;7.00;7.00;;;;;;;;4915137;29;8881;-81
2022/07/03 10:15:21;;;;;;;;;62.00;49.50;;;;;;;;4912118;29;8897;-83
2022/07/03 10:17:51;;;;;;;;;57.75;51.25;;;;;;;;4920149;29;10262;-79
2022/07/03 10:20:25;;;;;;;;;2.00;2.00;;;;;;;;4912260;29;8893;-80
2022/07/03 10:22:53;;;;;;;;;397.60;373.20;;;;;;;;4921558;29;8868;-78
2022/07/03 10:25:21;;;;;;;;;51.25;43.50;;;;;;;;4910854;29;9668;-82
2022/07/03 10:27:50;;;;;;;;;65.00;55.75;;;;;;;;4913840;29;8867;-83
2022/07/03 10:30:18;;;;;;;;;18.50;15.25;;;;;;;;4914188;29;9010;-83
2022/07/03 10:32:47;;;;;;;;;36.00;33.25;;;;;;;;4925671;29;8950;-84
2022/07/03 10:35:17;;;;;;;;;1.40;1.40;;;;;;;;4920313;29;8899;-81
2022/07/03 10:38:17;;;;;;;;;1.00;1.00;;;;;;;;4910424;29;8909;-81
2022/07/03 10:46:26;;;;;;;;;0.00;0.00;;;;;;;;4922237;29;8875;-81
2022/07/03 10:48:57;;;;;;;;;1.00;0.40;;;;;;;;4922563;29;8864;-79
2022/07/03 10:51:25;;;;;;;;;0.20;0.20;;;;;;;;4921314;29;8909;-82
2022/07/03 10:54:13;;;;;;;;;0.20;0.20;;;;;;;;4917286;29;8864;-82
2022/07/03 10:57:17;;;;;;;;;0.60;0.60;;;;;;;;4923504;29;8936;-81
2022/07/03 11:00:19;;;;;;;;;0.40;0.40;;;;;;;;4920070;29;8880;-82
2022/07/03 11:02:50;;;;;;;;;1.00;1.00;;;;;;;;4870052;29;8858;-84
2022/07/03 11:05:22;;;;;;;;;0.00;0.00;;;;;;;;4914310;29;8986;-81
2022/07/03 11:08:09;;;;;;;;;2.00;0.20;;;;;;;;4927672;29;8915;-82
2022/07/03 11:10:40;;;;;;;;;0.20;0.20;;;;;;;;4941943;28;8890;-79
2022/07/03 11:13:20;;;;;;;;;1.20;1.20;;;;;;;;4945310;28;10017;-81
2022/07/03 11:15:51;;;;;;;;;1.00;1.00;;;;;;;;4943986;28;8877;-79
2022/07/03 11:18:32;;;;;;;;;1.00;1.00;;;;;;;;4945151;28;9035;-80
2022/07/03 11:21:30;;;;;;;;;0.40;0.40;;;;;;;;4945213;28;8875;-82
2022/07/03 11:24:33;;;;;;;;;1.00;1.00;;;;;;;;4911707;28;8916;-82
2022/07/03 11:27:29;;;;;;;;;0.80;0.80;;;;;;;;4946200;28;8889;-81
2022/07/03 11:30:01;;;;;;;;;1.00;1.00;;;;;;;;4938469;28;8862;-80
2022/07/03 11:33:03;;;;;;;;;0.80;0.80;;;;;;;;4943212;28;8819;-81
2022/07/03 11:35:51;;;;;;;;;0.40;0.40;;;;;;;;4868582;29;9048;-83
2022/07/03 11:38:30;;;;;;;;;0.20;0.20;;;;;;;;4868304;29;8904;-83
2022/07/03 11:40:59;;;;;;;;;0.00;0.00;;;;;;;;4916181;29;8880;-80
2022/07/03 11:43:27;;;;;;;;;0.80;0.80;;;;;;;;4938519;28;8899;-85
2022/07/03 11:45:55;;;;;;;;;0.80;0.80;;;;;;;;4937416;28;8881;-80
2022/07/03 11:48:26;;;;;;;;;1.00;1.00;;;;;;;;4945841;28;9008;-75
2022/07/03 11:50:53;;;;;;;;;1.00;1.00;;;;;;;;4944641;28;8865;-75
2022/07/03 11:53:24;;;;;;;;;0.20;0.20;;;;;;;;4944375;28;8908;-73
2022/07/03 11:55:53;;;;;;;;;0.20;0.20;;;;;;;;4943375;28;8861;-76
2022/07/03 11:58:20;;;;;;;;;0.20;0.20;;;;;;;;4927604;28;8882;-75
2022/07/03 12:00:50;;;;;;;;;0.00;0.00;;;;;;;;4945542;28;8856;-83
2022/07/03 12:03:21;;;;;;;;;0.00;0.00;;;;;;;;4940018;28;8889;-84
2022/07/03 12:05:58;;;;;;;;;1.00;1.00;;;;;;;;4943007;28;8956;-86
2022/07/03 12:08:28;;;;;;;;;0.00;0.00;;;;;;;;4943444;28;8893;-84
2022/07/03 12:11:00;;;;;;;;;0.60;0.00;;;;;;;;4925565;28;8878;-84
2022/07/03 12:13:30;;;;;;;;;0.00;0.00;;;;;;;;4944678;28;8886;-84
2022/07/03 12:16:03;;;;;;;;;1.00;1.00;;;;;;;;4928804;29;8869;-85
2022/07/03 12:18:43;;;;;;;;;0.00;0.00;;;;;;;;4924619;28;9360;-83
2022/07/03 12:21:12;;;;;;;;;0.00;0.00;;;;;;;;4935831;28;8916;-82
2022/07/03 12:23:44;;;;;;;;;0.60;0.60;;;;;;;;4926691;28;8904;-83
2022/07/03 12:26:13;;;;;;;;;0.60;0.60;;;;;;;;4933349;28;8863;-85
2022/07/03 12:28:40;;;;;;;;;0.00;0.00;;;;;;;;4924436;28;8881;-91
2022/07/03 12:31:11;;;;;;;;;0.00;0.00;;;;;;;;4930076;28;9239;-85
2022/07/03 12:33:40;;;;;;;;;0.60;0.60;;;;;;;;4934846;28;8882;-86
2022/07/03 12:36:14;;;;;;;;;0.00;0.00;;;;;;;;4939722;28;8865;-85
2022/07/03 12:38:42;;;;;;;;;1.00;1.00;;;;;;;;4943145;28;8881;-86
2022/07/03 12:41:11;;;;;;;;;0.00;0.00;;;;;;;;4942118;28;8916;-91
2022/07/03 12:43:39;;;;;;;;;0.00;0.00;;;;;;;;4943687;28;8858;-86
2022/07/03 12:46:18;;;;;;;;;0.00;0.00;;;;;;;;4941458;28;8873;-90
2022/07/03 12:48:49;;;;;;;;;0.00;0.00;;;;;;;;4940225;28;8865;-88
2022/07/03 12:51:18;;;;;;;;;0.00;0.00;;;;;;;;4942674;28;8885;-87
2022/07/03 12:53:55;;;;;;;;;0.00;0.00;;;;;;;;4941852;28;8889;-90
2022/07/03 12:56:23;;;;;;;;;0.00;0.00;;;;;;;;4940506;28;8992;-88
2022/07/03 13:01:36;;;;;;;;;0.00;0.00;;;;;;;;4925003;28;8826;-84
2022/07/03 13:04:04;;;;;;;;;0.80;0.80;;;;;;;;4941123;28;8897;-82
2022/07/03 13:06:33;;;;;;;;;1.20;0.20;;;;;;;;4937354;28;8994;-91
2022/07/03 13:09:02;;;;;;;;;2.00;1.00;;;;;;;;4888489;29;1428615;-89
2022/07/03 13:11:31;;;;;;;;;0.00;0.00;;;;;;;;4922185;29;9693;-87
2022/07/03 13:14:10;;;;;;;;;0.00;0.00;;;;;;;;4920782;29;8946;-93
2022/07/03 13:16:39;;;;;;;;;1.20;0.80;;;;;;;;4922632;29;8888;-86
2022/07/03 13:19:07;;;;;;;;;0.00;0.00;;;;;;;;4923293;29;8868;-94
2022/07/03 13:21:36;;;;;;;;;0.80;0.00;;;;;;;;4923047;29;9046;-88
2022/07/03 13:24:07;;;;;;;;;0.80;0.80;;;;;;;;4924531;29;8875;-88
2022/07/03 13:26:34;;;;;;;;;1.00;0.00;;;;;;;;4919769;29;8879;-87
2022/07/03 13:29:03;;;;;;;;;0.00;0.00;;;;;;;;4923044;29;8910;-88
2022/07/03 13:31:31;;;;;;;;;0.00;0.00;;;;;;;;4921997;29;8820;-85
2022/07/03 13:33:59;;;;;;;;;0.00;0.00;;;;;;;;4923480;29;8864;-87
2022/07/03 13:36:27;;;;;;;;;0.00;0.00;;;;;;;;4921470;29;8872;-88
2022/07/03 13:38:57;;;;;;;;;0.00;0.00;;;;;;;;4920044;29;8893;-88
2022/07/03 13:41:24;;;;;;;;;0.00;0.00;;;;;;;;4922483;29;8883;-90
2022/07/03 13:43:52;;;;;;;;;0.00;0.00;;;;;;;;4914270;29;8884;-87
2022/07/03 13:46:24;;;;;;;;;0.00;0.00;;;;;;;;4923581;29;8895;-83
2022/07/03 13:48:54;;;;;;;;;0.00;0.00;;;;;;;;4913510;29;9688;-89
2022/07/03 13:51:21;;;;;;;;;0.00;0.00;;;;;;;;4907782;29;9705;-86
2022/07/03 13:53:49;;;;;;;;;0.00;0.00;;;;;;;;4922855;29;8879;-86
2022/07/03 13:56:18;;;;;;;;;0.00;0.00;;;;;;;;4918113;29;8875;-90
2022/07/03 13:58:49;;;;;;;;;0.00;0.00;;;;;;;;4923186;29;8858;-91
2022/07/03 14:01:16;;;;;;;;;0.00;0.00;;;;;;;;4917560;29;8824;-85
2022/07/03 14:03:44;;;;;;;;;0.00;0.00;;;;;;;;4922884;29;8926;-87
2022/07/03 14:06:11;;;;;;;;;0.00;0.00;;;;;;;;4918768;29;9656;-89
2022/07/03 14:08:39;;;;;;;;;0.00;0.00;;;;;;;;4921255;29;8875;-86
2022/07/03 14:11:06;;;;;;;;;0.00;0.00;;;;;;;;4905307;29;8891;-92
2022/07/03 14:13:35;;;;;;;;;0.00;0.00;;;;;;;;4921604;29;9086;-91
2022/07/03 14:16:02;;;;;;;;;1.40;0.00;;;;;;;;4925950;29;8876;-90
2022/07/03 14:18:30;;;;;;;;;0.00;0.00;;;;;;;;4924920;29;9038;-91
2022/07/03 14:20:57;;;;;;;;;0.00;0.00;;;;;;;;4899096;29;8884;-89
2022/07/03 14:23:25;;;;;;;;;0.00;0.00;;;;;;;;4917527;29;8901;-86
2022/07/03 14:25:53;;;;;;;;;0.00;0.00;;;;;;;;4917378;29;8883;-89
2022/07/03 14:33:51;;;;;;;;;0.00;0.00;;;;;;;;4922122;29;8864;-87
2022/07/03 14:36:19;;;;;;;;;0.00;0.00;;;;;;;;4920703;29;9614;-87
2022/07/03 14:38:46;;;;;;;;;0.00;0.00;;;;;;;;4925732;29;9019;-85
2022/07/03 14:41:14;;;;;;;;;0.00;0.00;;;;;;;;4919506;29;8902;-87
2022/07/03 14:43:41;;;;;;;;;0.00;0.00;;;;;;;;4922773;29;8907;-87
2022/07/03 14:46:11;;;;;;;;;0.00;0.00;;;;;;;;4925090;29;8894;-88
2022/07/03 14:48:38;;;;;;;;;0.00;0.00;;;;;;;;4910311;29;8888;-88
2022/07/03 14:51:05;;;;;;;;;0.00;0.00;;;;;;;;4922204;29;8984;-88
2022/07/03 14:53:32;;;;;;;;;0.00;0.00;;;;;;;;4921667;29;8918;-85
2022/07/03 14:56:00;;;;;;;;;0.00;0.00;;;;;;;;4922317;29;8880;-86
2022/07/03 14:58:28;;;;;;;;;0.00;0.00;;;;;;;;4921909;29;8903;-80
2022/07/03 15:00:58;;;;;;;;;0.00;0.00;;;;;;;;4921133;29;8908;-83
2022/07/03 15:03:31;;;;;;;;;0.00;0.00;;;;;;;;4919569;29;8908;-81
2022/07/03 15:06:00;;;;;;;;;0.00;0.00;;;;;;;;4901440;29;8962;-85
2022/07/03 15:08:51;;;;;;;;;0.40;0.40;;;;;;;;4922816;29;9019;-83
2022/07/03 15:14:09;;;;;;;;;0.00;0.00;;;;;;;;4935682;29;8852;-81
2022/07/03 15:16:37;;;;;;;;;0.00;0.00;;;;;;;;4930228;29;8948;-78
2022/07/03 15:19:09;;;;;;;;;0.80;0.80;;;;;;;;4925058;28;9028;-86
2022/07/03 15:21:40;;;;;;;;;0.00;0.00;;;;;;;;4938215;29;8886;-82
2022/07/03 15:24:09;;;;;;;;;0.40;0.40;;;;;;;;4938831;29;8900;-81
2022/07/03 15:26:42;;;;;;;;;1.00;0.80;;;;;;;;4933491;29;8901;-81
2022/07/03 15:29:12;;;;;;;;;0.40;0.40;;;;;;;;4936054;29;10135;-82
2022/07/03 15:31:40;;;;;;;;;0.40;0.40;;;;;;;;4932960;28;8824;-81
2022/07/03 15:34:09;;;;;;;;;0.00;0.00;;;;;;;;4932999;29;8885;-81
2022/07/03 15:36:42;;;;;;;;;0.60;0.60;;;;;;;;4934281;28;8912;-83
2022/07/03 15:39:14;;;;;;;;;0.00;0.00;;;;;;;;4929026;28;8873;-84
2022/07/03 15:41:59;;;;;;;;;0.00;0.00;;;;;;;;4931981;28;8878;-81